createdAt,value
2022-11-22T00:06:12.845Z,0
2022-11-22T00:20:12.813Z,0
2022-11-22T00:34:12.880Z,0
2022-11-22T00:49:12.830Z,0
2022-11-22T01:03:12.830Z,0
2022-11-22T01:17:12.845Z,0.6
2022-11-22T01:31:12.933Z,1.0
2022-11-22T01:45:12.911Z,0.4
2022-11-22T01:59:12.899Z,0.8
2022-11-22T02:13:12.924Z,0
2022-11-22T02:27:12.911Z,0
2022-11-22T02:41:12.900Z,0.2
2022-11-22T02:55:12.917Z,0.4
2022-11-22T03:09:13.005Z,0.2
2022-11-22T03:23:12.991Z,1.7
2022-11-22T03:37:13.019Z,1.1
2022-11-22T03:51:13.015Z,1.2
2022-11-22T04:05:13.018Z,1.5
2022-11-22T04:19:13.018Z,1.0
2022-11-22T04:33:13.334Z,0.9
2022-11-22T04:47:13.475Z,2.8
2022-11-22T05:01:13.553Z,2.5
2022-11-22T05:15:13.477Z,1.5
2022-11-22T05:29:13.488Z,0.2
2022-11-22T05:43:13.453Z,0.8
2022-11-22T05:57:13.508Z,1.5
2022-11-22T06:11:13.517Z,2.1
2022-11-22T06:25:13.579Z,2.1
2022-11-22T06:40:13.513Z,2.1
2022-11-22T06:55:34.947Z,2.9
2022-11-22T07:10:13.541Z,1.8
2022-11-22T07:25:13.554Z,2.1
2022-11-22T07:40:13.628Z,1.4
2022-11-22T07:55:14.339Z,2.3
2022-11-22T08:10:13.566Z,2.3
2022-11-22T08:26:13.580Z,1.8
2022-11-22T08:41:13.686Z,1.7
2022-11-22T08:57:13.675Z,1.8
2022-11-22T09:13:13.896Z,2.5
2022-11-22T09:28:13.750Z,2.2
2022-11-22T09:43:13.792Z,2.3
2022-11-22T09:58:13.877Z,3.1
2022-11-22T10:13:13.798Z,3.7
2022-11-22T10:28:13.830Z,1.9
2022-11-22T10:43:13.864Z,2.5
2022-11-22T10:50:23.842Z,2.9
2022-11-22T11:05:23.835Z,3.2
2022-11-22T11:20:24.123Z,3.3
2022-11-22T11:35:24.136Z,2.1
2022-11-22T11:50:24.703Z,2.5
2022-11-22T12:05:24.154Z,2.2
2022-11-22T12:20:24.211Z,1.7
2022-11-22T12:35:24.249Z,1.2
2022-11-22T12:50:24.297Z,1.1
2022-11-22T13:05:24.373Z,1.4
2022-11-22T13:20:24.407Z,2.0
2022-11-22T13:35:24.460Z,2.8
2022-11-22T13:51:24.595Z,1.7
2022-11-22T14:07:24.659Z,2.3
2022-11-22T14:22:24.702Z,1.0
2022-11-22T14:37:24.685Z,1.0
2022-11-22T14:52:24.699Z,0.8
2022-11-22T15:09:07.753Z,0.6
2022-11-22T16:06:24.959Z,1.0
2022-11-22T16:20:24.963Z,1.1
2022-11-22T16:34:24.999Z,0.4
2022-11-22T16:48:31.651Z,0.4
2022-11-22T17:02:25.123Z,0.8
2022-11-22T17:16:25.286Z,0.4
2022-11-22T17:30:25.247Z,1.5
2022-11-22T17:44:25.274Z,0.2
2022-11-22T17:58:25.333Z,1.0
2022-11-22T18:12:25.275Z,0.8
2022-11-22T18:26:39.660Z,1.9
2022-11-22T18:40:25.316Z,0.8
2022-11-22T18:54:25.695Z,0.8
2022-11-22T19:08:25.944Z,0.8
2022-11-22T19:22:25.910Z,0.4
2022-11-22T19:36:32.069Z,0.8
2022-11-22T19:50:25.975Z,0.8
2022-11-22T20:04:25.963Z,0
2022-11-22T20:18:25.979Z,0.2
2022-11-22T20:32:25.920Z,0.4
2022-11-22T20:46:26.010Z,0
2022-11-22T21:00:25.964Z,0
2022-11-22T21:14:25.976Z,0
2022-11-22T21:28:26.024Z,0
2022-11-22T21:42:25.976Z,0
2022-11-22T21:56:26.037Z,0.2
2022-11-22T22:10:26.017Z,0.4
2022-11-22T22:24:26.027Z,0.2
2022-11-22T22:38:26.016Z,0
2022-11-22T22:52:26.030Z,0
2022-11-22T23:06:26.025Z,0
2022-11-22T23:20:26.052Z,0.8
2022-11-22T23:31:55.830Z,0
2022-11-22T23:45:55.922Z,0.4
2022-11-22T23:59:55.928Z,0.8
